Time;durP1;ratioP1;P1;durP2;ratioP2;P2;SDS_P1;SDS_P2;PMS_P1;PMS_P2;Temp;Humidity;BMP_temperature;BMP_pressure;BME280_temperature;BME280_humidity;BME280_pressure;Samples;Min_cycle;Max_cycle;Signal;HPM_P1;HPM_P2
2023/08/28 00:02:36;;;;;;;3.25;1.80;;;19.50;98.50;;;;;;6273093;22;20022;-70
2023/08/28 00:05:22;;;;;;;2.50;1.70;;;19.40;98.30;;;;;;6270287;22;20012;-69
2023/08/28 00:08:10;;;;;;;2.30;1.63;;;19.40;97.90;;;;;;6250533;22;20081;-71
2023/08/28 00:10:56;;;;;;;2.63;1.70;;;19.30;97.70;;;;;;6271358;22;20022;-69
2023/08/28 00:13:42;;;;;;;3.17;1.70;;;19.20;97.50;;;;;;6273252;22;20015;-69
2023/08/28 00:16:27;;;;;;;2.40;1.48;;;19.20;97.40;;;;;;6273323;22;20014;-64
2023/08/28 00:19:13;;;;;;;2.45;1.38;;;19.10;97.20;;;;;;6272502;22;20008;-70
2023/08/28 00:21:59;;;;;;;2.17;1.50;;;19.10;97.20;;;;;;6273343;22;20008;-73
2023/08/28 00:24:45;;;;;;;1.90;1.60;;;19.00;97.00;;;;;;6250917;22;20019;-72
2023/08/28 00:27:31;;;;;;;2.83;1.48;;;19.00;96.90;;;;;;6270235;22;20015;-72
2023/08/28 00:30:17;;;;;;;2.33;1.40;;;18.90;96.80;;;;;;6271733;22;20027;-72
2023/08/28 00:33:04;;;;;;;2.13;1.40;;;18.90;96.80;;;;;;6271763;22;20012;-72
2023/08/28 00:35:50;;;;;;;3.50;1.40;;;18.80;96.70;;;;;;6270232;22;20090;-72
2023/08/28 00:38:36;;;;;;;1.55;1.23;;;18.70;96.70;;;;;;6273049;22;20090;-68
2023/08/28 00:41:22;;;;;;;2.20;1.55;;;18.70;96.70;;;;;;6272445;22;20442;-69
2023/08/28 00:44:08;;;;;;;1.67;1.27;;;18.60;96.60;;;;;;6272990;22;20019;-69
2023/08/28 00:46:54;;;;;;;1.77;1.25;;;18.60;96.70;;;;;;6272296;22;20422;-70
2023/08/28 00:49:40;;;;;;;3.85;1.40;;;18.50;96.60;;;;;;6249837;22;20018;-70
2023/08/28 00:52:27;;;;;;;1.95;1.50;;;18.50;96.70;;;;;;6270913;22;20012;-70
2023/08/28 00:55:13;;;;;;;1.70;1.27;;;18.40;96.60;;;;;;6272806;22;20019;-69
2023/08/28 00:57:59;;;;;;;2.50;1.23;;;18.40;96.60;;;;;;6272861;22;20389;-69
2023/08/28 01:00:44;;;;;;;1.75;1.35;;;18.40;96.60;;;;;;6272639;22;20091;-70
2023/08/28 01:03:30;;;;;;;1.90;1.30;;;18.30;96.70;;;;;;6272787;22;20095;-69
2023/08/28 01:06:44;;;;;;;2.97;1.50;;;18.20;96.60;;;;;;6273018;22;20007;-70
2023/08/28 01:09:54;;;;;;;2.15;1.42;;;18.20;96.70;;;;;;6271781;22;20018;-69
2023/08/28 01:12:43;;;;;;;1.67;1.35;;;18.10;96.70;;;;;;6272596;22;20011;-72
2023/08/28 01:15:31;;;;;;;3.35;1.20;;;18.10;96.80;;;;;;6270494;22;20537;-72
2023/08/28 01:18:18;;;;;;;2.60;1.38;;;18.00;96.80;;;;;;6247280;22;20372;-72
2023/08/28 01:21:04;;;;;;;2.13;1.25;;;18.00;96.80;;;;;;6269310;22;20392;-69
2023/08/28 01:23:58;;;;;;;2.60;1.60;;;18.00;96.80;;;;;;6270224;22;20484;-70
2023/08/28 01:26:44;;;;;;;2.47;1.30;;;18.00;97.10;;;;;;6250770;22;20019;-70
2023/08/28 01:29:30;;;;;;;1.92;1.40;;;17.90;96.90;;;;;;6270718;22;20097;-70
2023/08/28 01:32:16;;;;;;;1.42;1.25;;;17.90;97.00;;;;;;6274936;22;20045;-70
2023/08/28 01:35:12;;;;;;;1.67;1.27;;;17.90;97.00;;;;;;6274472;22;20019;-70
2023/08/28 01:38:30;;;;;;;6.15;1.63;;;17.80;97.00;;;;;;6272323;22;20019;-70
2023/08/28 01:41:19;;;;;;;2.17;1.35;;;17.80;97.00;;;;;;6274808;22;20007;-70
2023/08/28 01:44:07;;;;;;;1.63;1.30;;;17.80;97.10;;;;;;6272793;22;20469;-69
2023/08/28 01:46:53;;;;;;;2.40;1.38;;;17.70;97.10;;;;;;6274354;22;20022;-68
2023/08/28 01:49:39;;;;;;;2.65;1.75;;;17.70;97.10;;;;;;6272350;22;20015;-69
2023/08/28 01:52:25;;;;;;;1.60;1.30;;;17.70;97.20;;;;;;6275192;22;20046;-69
2023/08/28 01:55:11;;;;;;;2.83;1.70;;;17.60;97.20;;;;;;6278735;22;20475;-70
2023/08/28 01:57:57;;;;;;;3.05;1.23;;;17.60;97.30;;;;;;6250607;22;20110;-69
2023/08/28 02:00:43;;;;;;;2.45;1.30;;;17.60;97.30;;;;;;6272563;22;20382;-71
2023/08/28 02:03:30;;;;;;;3.30;1.50;;;17.50;97.30;;;;;;6270648;22;20446;-70
2023/08/28 02:06:16;;;;;;;2.03;1.38;;;17.50;97.40;;;;;;6274619;22;20357;-71
2023/08/28 02:09:02;;;;;;;2.03;1.38;;;17.50;97.40;;;;;;6251303;22;20012;-71
2023/08/28 02:11:49;;;;;;;2.13;1.52;;;17.50;97.50;;;;;;6274286;22;20012;-71
2023/08/28 02:14:35;;;;;;;2.10;1.73;;;17.40;97.80;;;;;;6271962;22;20023;-71
2023/08/28 02:17:20;;;;;;;2.72;1.30;;;17.40;97.70;;;;;;6273169;22;20012;-72
2023/08/28 02:20:09;;;;;;;2.30;1.30;;;17.40;97.70;;;;;;6274186;22;20047;-76
2023/08/28 02:22:55;;;;;;;4.63;3.05;;;17.40;97.60;;;;;;6272791;22;20011;-77
2023/08/28 02:25:45;;;;;;;2.40;1.60;;;17.40;97.70;;;;;;6274114;22;20012;-74
2023/08/28 02:28:31;;;;;;;3.13;1.70;;;17.40;97.60;;;;;;6273068;22;20087;-74
2023/08/28 02:31:17;;;;;;;1.75;1.23;;;17.30;97.60;;;;;;6271427;22;20099;-74
2023/08/28 02:34:03;;;;;;;3.65;1.77;;;17.30;97.60;;;;;;6270512;22;20019;-74
2023/08/28 02:36:49;;;;;;;2.72;1.42;;;17.30;97.70;;;;;;6272324;22;20011;-74
2023/08/28 02:39:35;;;;;;;1.98;1.48;;;17.30;97.70;;;;;;6271908;22;20073;-75
2023/08/28 02:42:21;;;;;;;2.40;1.38;;;17.30;97.70;;;;;;6251059;22;20501;-72
2023/08/28 02:45:07;;;;;;;5.10;1.70;;;17.30;97.70;;;;;;6273546;22;20031;-72
2023/08/28 02:47:53;;;;;;;4.60;1.83;;;17.30;97.80;;;;;;6271653;22;20285;-71
2023/08/28 02:50:39;;;;;;;2.00;1.40;;;17.30;97.80;;;;;;6273815;22;20449;-72
2023/08/28 02:53:25;;;;;;;2.38;1.33;;;17.30;97.80;;;;;;6272478;22;20054;-71
2023/08/28 02:56:17;;;;;;;1.77;1.40;;;17.20;97.80;;;;;;6271952;22;20090;-71
2023/08/28 02:59:03;;;;;;;2.78;1.50;;;17.20;97.80;;;;;;6250284;22;20283;-71
2023/08/28 03:01:49;;;;;;;2.45;1.30;;;17.20;97.90;;;;;;6273666;22;20015;-71
2023/08/28 03:04:35;;;;;;;2.50;1.35;;;17.20;97.90;;;;;;6270880;22;20023;-71
2023/08/28 03:07:21;;;;;;;2.42;1.80;;;17.20;97.90;;;;;;6271780;22;20016;-72
2023/08/28 03:10:08;;;;;;;2.08;1.38;;;17.20;98.00;;;;;;6271579;22;20043;-71
2023/08/28 03:12:54;;;;;;;3.97;1.63;;;17.10;98.00;;;;;;6273668;22;20007;-72
2023/08/28 03:15:40;;;;;;;4.03;1.70;;;17.10;98.00;;;;;;6273652;22;20058;-72
2023/08/28 03:18:26;;;;;;;2.42;1.92;;;17.10;98.00;;;;;;6273228;22;20066;-70
2023/08/28 03:21:12;;;;;;;3.33;1.80;;;17.10;98.10;;;;;;6273232;22;20046;-72
2023/08/28 03:23:58;;;;;;;3.40;1.52;;;17.00;98.10;;;;;;6272142;22;20081;-71
2023/08/28 03:26:44;;;;;;;2.17;1.42;;;17.00;98.10;;;;;;6271083;22;20008;-72
2023/08/28 03:29:30;;;;;;;4.38;1.50;;;17.00;98.10;;;;;;6271435;22;20106;-73
2023/08/28 03:32:16;;;;;;;2.95;1.55;;;16.90;98.20;;;;;;6273041;22;20338;-72
2023/08/28 03:35:02;;;;;;;3.47;1.88;;;16.90;98.20;;;;;;6272894;22;20027;-72
2023/08/28 03:37:47;;;;;;;1.90;1.40;;;16.90;98.30;;;;;;6273559;22;20017;-72
2023/08/28 03:40:35;;;;;;;2.45;1.50;;;16.90;98.30;;;;;;6273190;22;20015;-72
2023/08/28 03:43:21;;;;;;;2.67;1.63;;;16.90;98.40;;;;;;6271119;22;20330;-71
2023/08/28 03:46:07;;;;;;;2.30;1.85;;;16.80;98.30;;;;;;6270264;22;20349;-72
2023/08/28 03:48:52;;;;;;;2.88;1.73;;;16.80;98.40;;;;;;6272131;22;20058;-72
2023/08/28 03:51:38;;;;;;;2.10;1.60;;;16.70;98.40;;;;;;6272767;22;20023;-72
2023/08/28 03:54:26;;;;;;;2.50;1.98;;;16.70;98.40;;;;;;6270045;22;20330;-72
2023/08/28 03:57:12;;;;;;;2.83;1.90;;;16.70;98.60;;;;;;6271865;22;20003;-71
2023/08/28 03:59:58;;;;;;;5.20;1.70;;;16.70;98.60;;;;;;6272475;22;20011;-72
2023/08/28 04:02:48;;;;;;;2.85;1.65;;;16.70;98.60;;;;;;6271507;22;20077;-70
2023/08/28 04:05:38;;;;;;;3.33;2.00;;;16.70;98.60;;;;;;6271259;22;20016;-71
2023/08/28 04:08:24;;;;;;;3.95;2.10;;;16.70;98.60;;;;;;6271186;22;20436;-70
2023/08/28 04:11:09;;;;;;;5.30;2.00;;;16.60;98.50;;;;;;6271793;22;20019;-71
2023/08/28 04:13:55;;;;;;;4.03;1.90;;;16.60;98.40;;;;;;6273240;22;20027;-70
2023/08/28 04:16:41;;;;;;;3.75;1.90;;;16.60;98.50;;;;;;6272597;22;20012;-70
2023/08/28 04:19:27;;;;;;;3.05;2.17;;;16.50;98.50;;;;;;6272420;22;20065;-71
2023/08/28 04:22:13;;;;;;;2.83;2.05;;;16.50;98.50;;;;;;6273117;22;20055;-69
2023/08/28 04:25:00;;;;;;;4.60;1.90;;;16.50;98.60;;;;;;6271345;22;20077;-69
2023/08/28 04:27:46;;;;;;;3.55;2.13;;;16.50;98.60;;;;;;6269247;22;20015;-72
2023/08/28 04:30:32;;;;;;;3.75;2.25;;;16.60;98.70;;;;;;6250135;22;20141;-72
2023/08/28 04:33:18;;;;;;;2.92;2.38;;;16.60;98.70;;;;;;6271234;22;20011;-71
2023/08/28 04:36:04;;;;;;;3.70;2.30;;;16.60;98.60;;;;;;6270958;22;20073;-70
2023/08/28 04:38:50;;;;;;;5.32;2.20;;;16.60;98.60;;;;;;6270756;22;20003;-70
2023/08/28 04:41:36;;;;;;;4.25;2.28;;;16.60;98.60;;;;;;6269833;22;20070;-71
2023/08/28 04:44:22;;;;;;;3.63;2.55;;;16.70;98.70;;;;;;6272521;22;20016;-71
2023/08/28 04:47:08;;;;;;;4.60;2.85;;;16.70;98.70;;;;;;6273011;22;20349;-70
2023/08/28 04:49:54;;;;;;;3.35;2.30;;;16.70;98.70;;;;;;6272193;22;20053;-70
2023/08/28 04:52:40;;;;;;;3.40;2.25;;;16.80;98.70;;;;;;6271606;22;20004;-70
2023/08/28 04:55:26;;;;;;;3.75;2.15;;;16.80;98.70;;;;;;6272396;22;20023;-70
2023/08/28 04:58:12;;;;;;;7.50;2.60;;;16.90;98.70;;;;;;6271228;22;20015;-70
2023/08/28 05:00:58;;;;;;;2.75;2.08;;;16.90;98.70;;;;;;6270935;22;20018;-70
2023/08/28 06:35:32;;;;;;;3.25;2.10;;;17.50;98.20;;;;;;6241846;23;20054;-71
2023/08/28 06:38:18;;;;;;;3.50;2.17;;;17.60;98.20;;;;;;6243781;22;20035;-70
2023/08/28 06:41:03;;;;;;;3.13;2.42;;;17.60;98.20;;;;;;6240158;23;20018;-70
2023/08/28 06:43:49;;;;;;;5.75;2.45;;;17.70;98.10;;;;;;6241113;23;20008;-70
2023/08/28 06:46:37;;;;;;;3.83;2.58;;;17.80;98.00;;;;;;6242600;23;20102;-69
2023/08/28 06:49:22;;;;;;;3.85;2.80;;;17.90;98.10;;;;;;6242876;23;20008;-72
2023/08/28 06:52:08;;;;;;;2.88;2.00;;;17.90;98.00;;;;;;6241774;23;20027;-68
2023/08/28 06:54:54;;;;;;;4.50;2.47;;;18.00;97.80;;;;;;6238849;23;20082;-73
2023/08/28 06:57:40;;;;;;;5.32;1.92;;;18.00;97.70;;;;;;6241862;23;20052;-73
2023/08/28 07:00:26;;;;;;;2.75;1.77;;;18.00;97.60;;;;;;6242553;23;20039;-71
2023/08/28 07:03:12;;;;;;;7.78;2.20;;;18.10;97.50;;;;;;6242291;23;20011;-72
2023/08/28 07:05:58;;;;;;;3.70;2.35;;;18.10;97.50;;;;;;6242822;23;20456;-71
2023/08/28 07:08:44;;;;;;;3.15;2.10;;;18.10;97.40;;;;;;6242603;23;20045;-72
2023/08/28 07:11:30;;;;;;;3.40;2.03;;;18.20;97.40;;;;;;6241385;23;20012;-71
2023/08/28 07:14:17;;;;;;;3.72;1.80;;;18.10;97.20;;;;;;6242055;23;20020;-72
2023/08/28 07:17:03;;;;;;;3.50;1.98;;;18.20;97.30;;;;;;6243850;22;20421;-71
2023/08/28 07:19:48;;;;;;;6.68;2.30;;;18.30;97.10;;;;;;6239775;23;20088;-71
2023/08/28 07:22:35;;;;;;;6.03;1.90;;;18.30;97.10;;;;;;6241419;23;20038;-69
2023/08/28 07:25:22;;;;;;;3.60;1.90;;;18.30;97.10;;;;;;6241025;23;20341;-73
2023/08/28 07:28:09;;;;;;;4.32;1.70;;;18.40;97.10;;;;;;6240869;23;20475;-72
2023/08/28 07:30:59;;;;;;;3.42;1.90;;;18.50;97.20;;;;;;6243868;22;20012;-72
2023/08/28 07:33:45;;;;;;;6.55;1.73;;;18.60;97.00;;;;;;6218182;23;20031;-74
2023/08/28 07:36:31;;;;;;;7.72;1.73;;;18.60;97.00;;;;;;6241494;23;20091;-75
2023/08/28 07:39:17;;;;;;;2.20;1.30;;;18.70;96.90;;;;;;6242114;23;20008;-74
2023/08/28 07:42:04;;;;;;;4.97;1.63;;;18.80;97.00;;;;;;6240991;23;20460;-75
2023/08/28 07:44:50;;;;;;;4.05;2.13;;;18.90;96.70;;;;;;6241158;23;20008;-73
2023/08/28 07:47:36;;;;;;;5.22;1.98;;;19.00;96.60;;;;;;6242075;23;20314;-74
2023/08/28 07:50:23;;;;;;;3.83;1.38;;;19.10;96.60;;;;;;6241706;23;20010;-74
2023/08/28 07:53:09;;;;;;;4.28;2.05;;;19.10;96.50;;;;;;6238958;23;20020;-74
2023/08/28 07:55:54;;;;;;;3.17;1.50;;;19.20;96.60;;;;;;6242359;23;20374;-74
2023/08/28 07:58:40;;;;;;;2.83;1.40;;;19.20;96.30;;;;;;6241672;23;20011;-74
2023/08/28 08:01:26;;;;;;;3.88;1.45;;;19.30;96.10;;;;;;6218596;23;20012;-74
2023/08/28 08:04:12;;;;;;;5.05;2.00;;;19.40;96.00;;;;;;6241904;23;20390;-74
2023/08/28 08:06:58;;;;;;;4.00;1.65;;;19.40;95.80;;;;;;6241214;23;20548;-74
2023/08/28 08:09:44;;;;;;;1.90;1.20;;;19.40;95.50;;;;;;6247405;23;20091;-74
2023/08/28 08:12:30;;;;;;;1.63;1.17;;;19.50;95.60;;;;;;6248609;23;20011;-75
2023/08/28 08:15:16;;;;;;;2.88;1.63;;;19.60;95.30;;;;;;6242609;23;20056;-73
2023/08/28 08:18:03;;;;;;;2.67;1.65;;;19.50;95.30;;;;;;6240965;23;20100;-72
2023/08/28 08:20:50;;;;;;;3.45;1.30;;;19.60;95.30;;;;;;6242370;23;20358;-67
2023/08/28 08:23:36;;;;;;;2.70;1.38;;;19.70;95.30;;;;;;6241624;23;20011;-72
2023/08/28 08:26:22;;;;;;;2.88;1.80;;;19.70;95.20;;;;;;6242827;23;20473;-73
2023/08/28 08:29:08;;;;;;;2.78;1.75;;;19.80;95.10;;;;;;6241765;23;20012;-73
2023/08/28 08:31:54;;;;;;;1.80;1.10;;;19.90;94.90;;;;;;6218688;23;20012;-73
2023/08/28 08:34:39;;;;;;;2.70;1.20;;;19.90;94.60;;;;;;6264543;22;20024;-73
2023/08/28 08:37:27;;;;;;;2.40;1.52;;;19.90;94.50;;;;;;6273137;22;20097;-73
2023/08/28 08:40:13;;;;;;;3.08;1.55;;;19.90;94.40;;;;;;6271151;22;20350;-73
2023/08/28 08:42:59;;;;;;;2.63;1.20;;;19.90;94.30;;;;;;6250308;22;20013;-73
2023/08/28 08:45:50;;;;;;;2.65;1.77;;;20.00;94.20;;;;;;6271651;22;20569;-74
2023/08/28 08:48:37;;;;;;;1.75;1.10;;;20.00;94.10;;;;;;6271800;22;20008;-74
2023/08/28 08:51:25;;;;;;;3.05;1.40;;;20.00;94.20;;;;;;6270368;22;20011;-70
2023/08/28 08:54:26;;;;;;;2.63;1.10;;;20.10;94.00;;;;;;6271758;22;20030;-76
2023/08/28 08:57:42;;;;;;;2.38;1.20;;;20.10;93.90;;;;;;6270026;22;20008;-76
2023/08/28 09:00:28;;;;;;;2.75;1.45;;;20.30;93.90;;;;;;6251009;22;20095;-75
2023/08/28 09:03:14;;;;;;;2.83;1.23;;;20.40;93.70;;;;;;6270118;22;20357;-76
2023/08/28 09:06:01;;;;;;;3.20;1.67;;;20.50;93.70;;;;;;6270055;22;20007;-75
2023/08/28 09:08:48;;;;;;;2.60;1.20;;;20.60;93.60;;;;;;6250300;22;20507;-71
2023/08/28 09:11:36;;;;;;;1.35;1.00;;;20.70;93.60;;;;;;6270609;22;20035;-71
2023/08/28 09:14:22;;;;;;;1.90;1.10;;;20.90;93.40;;;;;;6270239;22;20023;-73
2023/08/28 09:17:08;;;;;;;1.70;1.10;;;21.00;93.00;;;;;;6271959;22;20114;-72
2023/08/28 09:19:54;;;;;;;1.00;0.90;;;21.10;92.90;;;;;;6269855;22;20019;-71
2023/08/28 09:22:47;;;;;;;3.28;0.95;;;21.10;92.50;;;;;;6271690;22;20346;-69
2023/08/28 09:25:34;;;;;;;3.45;1.88;;;21.20;92.40;;;;;;6270128;22;20099;-71
2023/08/28 09:28:20;;;;;;;3.45;1.38;;;21.20;92.50;;;;;;6271252;22;20012;-72
2023/08/28 09:31:06;;;;;;;3.55;1.70;;;21.20;92.20;;;;;;6271089;22;20017;-73
2023/08/28 09:33:52;;;;;;;3.88;1.42;;;21.20;92.10;;;;;;6272297;22;20027;-72
2023/08/28 09:36:42;;;;;;;6.32;2.30;;;21.20;92.10;;;;;;6272452;22;20047;-72
2023/08/28 09:39:28;;;;;;;2.97;1.65;;;21.20;92.10;;;;;;6271043;22;20004;-72
2023/08/28 09:42:26;;;;;;;4.68;1.40;;;21.20;91.90;;;;;;6269250;22;20023;-72
2023/08/28 09:45:12;;;;;;;2.22;1.20;;;21.20;91.80;;;;;;6272085;22;20387;-72
2023/08/28 09:47:59;;;;;;;1.35;1.10;;;21.20;91.70;;;;;;6268673;22;20008;-72
2023/08/28 09:50:51;;;;;;;7.15;1.55;;;21.20;91.90;;;;;;6269532;22;20104;-72
2023/08/28 09:53:37;;;;;;;1.65;1.00;;;21.30;91.80;;;;;;6271141;22;20008;-72
2023/08/28 09:56:30;;;;;;;1.60;0.88;;;21.30;91.70;;;;;;6274151;22;20014;-72
2023/08/28 09:59:16;;;;;;;1.40;1.20;;;21.30;91.60;;;;;;6270023;22;20059;-72
2023/08/28 10:02:03;;;;;;;3.97;1.60;;;21.30;91.70;;;;;;6273371;22;20024;-71
2023/08/28 10:04:52;;;;;;;1.75;1.15;;;21.40;91.80;;;;;;6272242;22;20012;-72
2023/08/28 10:07:41;;;;;;;2.92;1.38;;;21.40;91.70;;;;;;6270668;22;20189;-72
2023/08/28 10:10:27;;;;;;;1.42;0.90;;;21.40;91.70;;;;;;6273321;22;20153;-72
2023/08/28 10:13:20;;;;;;;1.45;1.25;;;21.50;91.70;;;;;;6273184;22;20131;-72
2023/08/28 10:16:20;;;;;;;2.40;1.38;;;21.50;91.60;;;;;;6272139;22;20016;-72
2023/08/28 10:19:18;;;;;;;2.00;0.98;;;21.50;91.60;;;;;;6269952;22;20460;-72
2023/08/28 10:22:07;;;;;;;1.13;1.02;;;21.50;91.40;;;;;;6272951;22;20377;-71
2023/08/28 10:24:56;;;;;;;1.92;1.20;;;21.60;91.70;;;;;;6271514;22;20593;-73
2023/08/28 10:27:43;;;;;;;1.20;0.80;;;21.70;91.40;;;;;;6271455;22;20008;-73
2023/08/28 10:30:30;;;;;;;1.65;1.13;;;21.70;91.30;;;;;;6270916;22;20012;-76
2023/08/28 10:33:20;;;;;;;1.90;1.10;;;21.80;91.30;;;;;;6269219;22;20054;-75
2023/08/28 10:36:11;;;;;;;1.85;0.93;;;21.90;91.20;;;;;;6272053;22;20484;-75
2023/08/28 10:39:00;;;;;;;2.08;1.00;;;22.10;91.10;;;;;;6272413;22;20102;-75
2023/08/28 10:41:47;;;;;;;7.38;1.30;;;22.20;90.80;;;;;;6271601;22;20016;-75
2023/08/28 10:49:44;;;;;;;1.60;1.10;;;22.40;90.70;;;;;;6279024;22;20031;-68
2023/08/28 10:52:30;;;;;;;1.85;1.20;;;22.50;90.60;;;;;;6300275;22;20038;-67
2023/08/28 10:55:18;;;;;;;0.88;0.75;;;22.50;90.30;;;;;;6297845;22;20015;-69
2023/08/28 10:58:04;;;;;;;2.97;1.13;;;22.60;90.30;;;;;;6298256;22;20122;-68
2023/08/28 11:01:11;;;;;;;0.88;0.80;;;22.70;90.20;;;;;;6299326;22;20007;-68
2023/08/28 11:03:58;;;;;;;1.45;0.80;;;22.70;89.70;;;;;;6297778;22;20057;-68
2023/08/28 11:06:45;;;;;;;2.20;0.80;;;22.60;89.00;;;;;;6300006;22;20007;-67
2023/08/28 11:09:32;;;;;;;1.13;0.82;;;22.60;88.90;;;;;;6299372;22;20447;-69
2023/08/28 11:12:18;;;;;;;3.22;1.00;;;22.60;88.80;;;;;;6288516;22;20011;-66
2023/08/28 11:15:05;;;;;;;1.15;0.90;;;22.60;88.60;;;;;;6301453;22;20015;-67
2023/08/28 11:18:19;;;;;;;0.98;0.80;;;22.70;88.80;;;;;;6284777;22;20034;-66
2023/08/28 11:21:08;;;;;;;2.85;1.08;;;22.70;89.00;;;;;;6301291;22;20018;-67
2023/08/28 11:23:54;;;;;;;1.55;1.10;;;22.70;88.60;;;;;;6285996;22;20362;-67
2023/08/28 11:26:43;;;;;;;3.22;1.08;;;22.50;87.70;;;;;;6302895;22;20309;-67
2023/08/28 11:29:30;;;;;;;2.47;1.00;;;22.50;87.80;;;;;;6302510;22;20321;-66
2023/08/28 11:32:17;;;;;;;1.90;0.80;;;22.50;88.10;;;;;;6302158;22;20082;-67
2023/08/28 11:35:05;;;;;;;2.95;0.90;;;22.60;88.10;;;;;;6299761;22;20031;-67
2023/08/28 11:37:54;;;;;;;1.88;0.90;;;22.60;88.20;;;;;;6303243;22;20031;-66
2023/08/28 11:40:40;;;;;;;2.42;1.33;;;22.60;88.40;;;;;;6300844;22;20015;-68
2023/08/28 11:43:26;;;;;;;1.60;1.10;;;22.60;88.40;;;;;;6301244;22;20405;-68
2023/08/28 11:46:12;;;;;;;2.05;1.17;;;22.70;88.00;;;;;;6277956;22;20016;-65
2023/08/28 11:48:58;;;;;;;1.92;1.33;;;22.70;87.10;;;;;;6269233;22;20016;-67
2023/08/28 11:51:44;;;;;;;2.55;1.50;;;22.60;87.20;;;;;;6237576;23;20135;-67
2023/08/28 11:54:33;;;;;;;1.40;0.90;;;22.70;87.80;;;;;;6241562;23;20020;-66
2023/08/28 11:57:19;;;;;;;4.00;1.35;;;22.70;87.90;;;;;;6238832;23;20012;-68
2023/08/28 12:00:11;;;;;;;7.25;4.20;;;22.70;87.70;;;;;;6240154;23;20015;-67
2023/08/28 12:02:57;;;;;;;3.20;1.20;;;22.70;87.10;;;;;;6239510;23;20032;-67
2023/08/28 12:05:43;;;;;;;2.22;1.00;;;22.70;86.80;;;;;;6241730;23;20016;-67
2023/08/28 12:08:29;;;;;;;1.92;1.10;;;22.70;87.10;;;;;;6241458;23;20130;-67
2023/08/28 12:11:18;;;;;;;2.20;1.00;;;22.80;87.60;;;;;;6241951;23;20059;-68
2023/08/28 12:14:17;;;;;;;1.70;1.10;;;22.70;87.10;;;;;;6239451;23;20094;-67
2023/08/28 12:17:03;;;;;;;4.10;1.15;;;22.80;87.90;;;;;;6239827;23;20134;-67
2023/08/28 12:19:52;;;;;;;2.22;1.05;;;22.90;87.60;;;;;;6240887;23;20127;-67
2023/08/28 12:22:43;;;;;;;7.35;4.85;;;22.80;86.80;;;;;;6239027;23;20008;-67
2023/08/28 12:25:45;;;;;;;3.60;2.03;;;22.80;86.70;;;;;;6239191;23;20074;-66
2023/08/28 12:28:31;;;;;;;2.03;1.00;;;22.80;86.40;;;;;;6238494;23;20386;-66
2023/08/28 12:31:31;;;;;;;1.48;0.95;;;22.80;87.20;;;;;;6239504;23;20022;-66
2023/08/28 12:34:18;;;;;;;2.95;1.50;;;22.90;87.60;;;;;;6241316;23;20020;-66
2023/08/28 12:37:08;;;;;;;2.28;1.30;;;22.90;87.20;;;;;;6238525;23;20018;-66
2023/08/28 12:39:56;;;;;;;1.77;0.90;;;22.90;86.60;;;;;;6237014;23;20008;-65
2023/08/28 12:42:41;;;;;;;3.78;1.30;;;22.90;86.40;;;;;;6238958;23;20023;-65
2023/08/28 12:45:27;;;;;;;1.88;1.17;;;22.90;85.80;;;;;;6239087;23;20018;-67
2023/08/28 12:48:13;;;;;;;3.53;1.20;;;22.80;85.50;;;;;;6240730;23;20011;-67
2023/08/28 12:50:59;;;;;;;1.33;1.00;;;22.80;86.50;;;;;;6240894;22;20721;-66
2023/08/28 12:53:45;;;;;;;1.00;0.90;;;22.80;86.30;;;;;;6232745;23;20321;-67
2023/08/28 12:56:34;;;;;;;2.15;0.90;;;22.80;85.90;;;;;;6234251;23;20081;-67
2023/08/28 12:59:23;;;;;;;1.60;1.23;;;22.80;86.20;;;;;;6212563;23;20039;-68
2023/08/28 13:02:09;;;;;;;1.98;1.00;;;22.90;86.10;;;;;;6231622;23;20012;-67
2023/08/28 13:04:55;;;;;;;2.60;1.50;;;23.00;86.20;;;;;;6235667;23;20461;-67
2023/08/28 13:07:41;;;;;;;5.05;1.75;;;23.10;85.90;;;;;;6235392;23;20008;-67
2023/08/28 13:10:27;;;;;;;2.33;1.23;;;23.20;86.20;;;;;;6234243;23;20276;-66
2023/08/28 13:13:13;;;;;;;2.13;1.05;;;23.20;85.40;;;;;;6233662;23;20016;-67
2023/08/28 13:16:00;;;;;;;2.97;1.10;;;23.20;84.70;;;;;;6232688;23;20024;-67
2023/08/28 13:18:46;;;;;;;1.73;1.00;;;23.20;84.50;;;;;;6232399;23;20090;-67
2023/08/28 13:21:32;;;;;;;2.95;0.95;;;23.20;84.30;;;;;;6233832;23;20509;-67
2023/08/28 13:24:18;;;;;;;1.58;0.70;;;23.10;83.60;;;;;;6234310;23;20012;-66
2023/08/28 13:27:05;;;;;;;2.38;0.80;;;23.00;83.70;;;;;;6236292;23;20008;-66
2023/08/28 13:29:50;;;;;;;2.45;1.15;;;22.90;83.90;;;;;;6235539;23;20326;-68
2023/08/28 13:32:36;;;;;;;4.38;2.20;;;22.90;83.60;;;;;;6236984;23;20046;-68
2023/08/28 13:35:22;;;;;;;2.88;1.45;;;22.90;84.10;;;;;;6234757;23;20024;-68
2023/08/28 13:38:08;;;;;;;2.58;1.17;;;22.90;84.20;;;;;;6236871;23;20043;-68
2023/08/28 13:40:54;;;;;;;1.80;1.20;;;22.90;83.80;;;;;;6237969;23;20039;-67
2023/08/28 13:43:40;;;;;;;1.95;1.33;;;22.90;84.00;;;;;;6240694;23;20091;-67
2023/08/28 13:46:26;;;;;;;2.17;0.85;;;22.80;83.70;;;;;;6240414;22;20090;-68
2023/08/28 13:49:12;;;;;;;1.75;1.23;;;22.80;83.50;;;;;;6241735;23;20447;-67
2023/08/28 13:51:58;;;;;;;2.38;1.02;;;22.70;83.70;;;;;;6241465;23;20354;-67
2023/08/28 13:54:44;;;;;;;5.45;1.63;;;22.70;83.90;;;;;;6241311;23;20447;-67
2023/08/28 13:57:31;;;;;;;7.32;2.15;;;22.70;84.40;;;;;;6243427;23;20107;-68
2023/08/28 14:00:17;;;;;;;1.85;1.25;;;22.70;84.50;;;;;;6240601;23;20568;-68
2023/08/28 14:03:06;;;;;;;4.00;1.30;;;22.70;83.90;;;;;;6238458;23;20074;-68
2023/08/28 14:05:52;;;;;;;2.50;1.30;;;22.70;83.70;;;;;;6219659;23;20038;-68
2023/08/28 14:08:38;;;;;;;3.75;1.73;;;22.70;83.70;;;;;;6239825;23;20055;-68
2023/08/28 14:11:24;;;;;;;4.03;1.10;;;22.70;83.50;;;;;;6240738;23;20074;-68
2023/08/28 14:14:09;;;;;;;3.50;1.77;;;22.70;84.00;;;;;;6241714;23;20349;-66
2023/08/28 14:16:55;;;;;;;5.40;1.65;;;22.70;84.40;;;;;;6241053;23;20027;-67
2023/08/28 14:19:41;;;;;;;2.53;1.52;;;22.70;84.50;;;;;;6237417;23;20019;-68
2023/08/28 14:22:27;;;;;;;5.40;1.58;;;22.80;84.70;;;;;;6242870;23;20462;-68
2023/08/28 14:25:13;;;;;;;8.05;2.00;;;22.80;84.40;;;;;;6239483;23;20035;-68
2023/08/28 14:28:00;;;;;;;4.93;2.40;;;22.80;84.80;;;;;;6241807;23;20027;-68
2023/08/28 14:30:47;;;;;;;1.55;1.02;;;22.90;84.80;;;;;;6241587;23;20012;-67
2023/08/28 14:33:33;;;;;;;1.65;1.30;;;22.90;84.30;;;;;;6241022;23;20344;-68
2023/08/28 14:36:19;;;;;;;2.83;1.30;;;22.90;83.90;;;;;;6239828;23;20074;-66
2023/08/28 14:39:05;;;;;;;5.72;1.20;;;22.90;83.30;;;;;;6242017;23;20096;-67
2023/08/28 14:41:52;;;;;;;4.38;1.45;;;22.90;83.60;;;;;;6240389;23;20012;-68
2023/08/28 14:44:38;;;;;;;1.67;1.10;;;22.90;83.70;;;;;;6239541;22;20008;-68
2023/08/28 14:47:24;;;;;;;3.58;1.20;;;22.90;83.50;;;;;;6241206;23;20004;-68
2023/08/28 14:50:11;;;;;;;3.13;1.10;;;22.90;82.80;;;;;;6243027;22;20035;-67
2023/08/28 14:52:57;;;;;;;1.25;0.75;;;22.90;82.70;;;;;;6240591;23;20015;-68
2023/08/28 14:55:43;;;;;;;1.40;0.90;;;22.80;82.50;;;;;;6241819;23;20024;-68
2023/08/28 14:58:29;;;;;;;1.52;1.17;;;22.80;82.50;;;;;;6239193;23;20126;-68
2023/08/28 15:01:17;;;;;;;2.13;1.00;;;22.80;82.80;;;;;;6241125;23;20004;-68
2023/08/28 15:04:03;;;;;;;3.55;1.52;;;22.80;82.80;;;;;;6216941;23;20054;-70
2023/08/28 15:06:49;;;;;;;2.13;1.10;;;22.80;82.50;;;;;;6238562;23;20008;-67
2023/08/28 15:09:35;;;;;;;2.50;0.82;;;22.70;82.70;;;;;;6240105;23;20341;-67
2023/08/28 15:12:21;;;;;;;1.40;1.08;;;22.70;82.60;;;;;;6237630;23;20349;-66
2023/08/28 15:15:07;;;;;;;5.05;1.40;;;22.70;83.10;;;;;;6238295;23;20051;-66
2023/08/28 15:17:53;;;;;;;0.88;0.77;;;22.70;83.30;;;;;;6239012;23;20361;-66
2023/08/28 15:20:39;;;;;;;1.90;1.30;;;22.80;83.60;;;;;;6239972;23;20323;-67
2023/08/28 15:23:25;;;;;;;1.58;1.10;;;22.80;83.80;;;;;;6239200;23;20083;-67
2023/08/28 15:26:11;;;;;;;2.10;1.27;;;22.80;83.90;;;;;;6242545;23;20059;-68
2023/08/28 15:28:57;;;;;;;1.40;1.00;;;22.80;82.90;;;;;;6241229;23;20015;-67
2023/08/28 15:31:43;;;;;;;2.63;1.20;;;22.70;82.80;;;;;;6240258;23;20019;-67
2023/08/28 15:34:29;;;;;;;1.17;1.08;;;22.60;82.70;;;;;;6240178;23;20013;-68
2023/08/28 15:37:15;;;;;;;1.33;0.90;;;22.60;82.60;;;;;;6239622;23;20453;-68
2023/08/28 15:40:01;;;;;;;2.58;1.10;;;22.50;82.10;;;;;;6241198;23;20349;-66
2023/08/28 15:42:48;;;;;;;2.08;0.90;;;22.40;82.00;;;;;;6240775;23;20054;-67
2023/08/28 15:45:34;;;;;;;2.63;1.08;;;22.40;82.00;;;;;;6239907;22;20004;-69
2023/08/28 15:48:20;;;;;;;2.60;1.30;;;22.30;82.90;;;;;;6240985;23;20058;-66
2023/08/28 15:51:05;;;;;;;1.10;0.75;;;22.30;83.30;;;;;;6239488;22;20495;-67
2023/08/28 15:53:51;;;;;;;3.85;1.25;;;22.30;83.30;;;;;;6240568;23;20016;-67
2023/08/28 15:56:38;;;;;;;6.35;1.65;;;22.30;83.80;;;;;;6242468;23;20330;-67
2023/08/28 15:59:25;;;;;;;1.63;1.10;;;22.20;84.20;;;;;;6239863;23;20012;-66
2023/08/28 16:02:14;;;;;;;2.00;0.88;;;22.20;85.00;;;;;;6240872;23;20445;-67
2023/08/28 16:05:00;;;;;;;1.15;1.00;;;22.10;85.00;;;;;;6240928;23;20015;-66
2023/08/28 16:07:46;;;;;;;8.73;1.50;;;22.10;85.20;;;;;;6240023;23;20079;-66
2023/08/28 16:10:32;;;;;;;3.05;1.25;;;22.00;84.80;;;;;;6240202;23;20445;-66